sensor_id;sensor_type;location;lat;lon;timestamp;P1;durP1;ratioP1;P2;durP2;ratioP2
57231;SDS011;43488;46.934;8.276;2023-04-30T00:00:33;662.85;;;279.60;;
57231;SDS011;43488;46.934;8.276;2023-04-30T00:03:02;665.58;;;290.65;;
57231;SDS011;43488;46.934;8.276;2023-04-30T00:05:30;681.53;;;295.42;;
57231;SDS011;43488;46.934;8.276;2023-04-30T00:07:57;683.65;;;302.20;;
57231;SDS011;43488;46.934;8.276;2023-04-30T00:10:25;684.75;;;302.30;;
57231;SDS011;43488;46.934;8.276;2023-04-30T00:12:52;682.55;;;295.55;;
57231;SDS011;43488;46.934;8.276;2023-04-30T00:15:20;692.15;;;305.48;;
57231;SDS011;43488;46.934;8.276;2023-04-30T00:17:47;692.92;;;302.25;;
57231;SDS011;43488;46.934;8.276;2023-04-30T00:20:15;694.17;;;299.38;;
57231;SDS011;43488;46.934;8.276;2023-04-30T00:22:43;686.67;;;294.63;;
57231;SDS011;43488;46.934;8.276;2023-04-30T00:25:10;683.92;;;296.38;;
57231;SDS011;43488;46.934;8.276;2023-04-30T00:27:37;671.45;;;288.52;;
57231;SDS011;43488;46.934;8.276;2023-04-30T00:30:05;668.28;;;278.23;;
57231;SDS011;43488;46.934;8.276;2023-04-30T00:32:33;678.20;;;295.50;;
57231;SDS011;43488;46.934;8.276;2023-04-30T00:35:00;677.97;;;288.55;;
57231;SDS011;43488;46.934;8.276;2023-04-30T00:37:28;668.03;;;281.13;;
57231;SDS011;43488;46.934;8.276;2023-04-30T00:39:56;692.63;;;302.48;;
57231;SDS011;43488;46.934;8.276;2023-04-30T00:42:23;687.92;;;294.92;;
57231;SDS011;43488;46.934;8.276;2023-04-30T00:44:50;688.35;;;293.60;;
57231;SDS011;43488;46.934;8.276;2023-04-30T00:47:17;689.22;;;303.73;;
57231;SDS011;43488;46.934;8.276;2023-04-30T00:49:45;682.05;;;290.77;;
57231;SDS011;43488;46.934;8.276;2023-04-30T00:52:15;672.60;;;278.50;;
57231;SDS011;43488;46.934;8.276;2023-04-30T00:54:43;678.00;;;289.52;;
57231;SDS011;43488;46.934;8.276;2023-04-30T00:57:11;686.85;;;295.92;;
57231;SDS011;43488;46.934;8.276;2023-04-30T00:59:40;684.53;;;298.58;;
57231;SDS011;43488;46.934;8.276;2023-04-30T01:02:07;678.40;;;291.45;;
57231;SDS011;43488;46.934;8.276;2023-04-30T01:04:35;688.97;;;302.60;;
57231;SDS011;43488;46.934;8.276;2023-04-30T01:07:03;681.58;;;295.00;;
57231;SDS011;43488;46.934;8.276;2023-04-30T01:09:31;679.90;;;287.70;;
57231;SDS011;43488;46.934;8.276;2023-04-30T01:12:12;682.25;;;293.02;;
57231;SDS011;43488;46.934;8.276;2023-04-30T01:18:15;687.97;;;303.35;;
57231;SDS011;43488;46.934;8.276;2023-04-30T01:20:56;690.17;;;302.25;;
57231;SDS011;43488;46.934;8.276;2023-04-30T01:23:57;683.75;;;296.17;;
57231;SDS011;43488;46.934;8.276;2023-04-30T01:30:04;679.47;;;291.67;;
57231;SDS011;43488;46.934;8.276;2023-04-30T01:32:33;683.10;;;292.75;;
57231;SDS011;43488;46.934;8.276;2023-04-30T01:35:00;678.00;;;292.17;;
57231;SDS011;43488;46.934;8.276;2023-04-30T01:37:34;681.63;;;295.67;;
57231;SDS011;43488;46.934;8.276;2023-04-30T01:40:38;688.28;;;308.98;;
57231;SDS011;43488;46.934;8.276;2023-04-30T01:43:35;695.38;;;301.00;;
57231;SDS011;43488;46.934;8.276;2023-04-30T01:46:56;705.53;;;306.38;;
57231;SDS011;43488;46.934;8.276;2023-04-30T01:49:41;680.25;;;261.05;;
57231;SDS011;43488;46.934;8.276;2023-04-30T01:52:46;704.65;;;296.63;;
57231;SDS011;43488;46.934;8.276;2023-04-30T01:55:29;709.05;;;297.77;;
57231;SDS011;43488;46.934;8.276;2023-04-30T01:58:29;705.40;;;296.48;;
57231;SDS011;43488;46.934;8.276;2023-04-30T02:00:58;713.55;;;298.67;;
57231;SDS011;43488;46.934;8.276;2023-04-30T02:03:25;709.50;;;295.63;;
57231;SDS011;43488;46.934;8.276;2023-04-30T02:05:53;718.05;;;303.63;;
57231;SDS011;43488;46.934;8.276;2023-04-30T02:08:21;715.15;;;303.58;;
57231;SDS011;43488;46.934;8.276;2023-04-30T02:10:48;717.70;;;301.80;;
57231;SDS011;43488;46.934;8.276;2023-04-30T02:13:15;715.55;;;303.08;;
57231;SDS011;43488;46.934;8.276;2023-04-30T02:15:42;721.83;;;308.15;;
57231;SDS011;43488;46.934;8.276;2023-04-30T02:18:10;720.28;;;307.50;;
57231;SDS011;43488;46.934;8.276;2023-04-30T02:20:37;713.88;;;294.85;;
57231;SDS011;43488;46.934;8.276;2023-04-30T02:23:08;720.95;;;307.45;;
57231;SDS011;43488;46.934;8.276;2023-04-30T02:25:36;714.78;;;294.25;;
57231;SDS011;43488;46.934;8.276;2023-04-30T02:28:04;721.28;;;305.25;;
57231;SDS011;43488;46.934;8.276;2023-04-30T02:30:31;718.60;;;300.58;;
57231;SDS011;43488;46.934;8.276;2023-04-30T02:32:59;715.28;;;303.08;;
57231;SDS011;43488;46.934;8.276;2023-04-30T02:35:26;716.95;;;297.52;;
57231;SDS011;43488;46.934;8.276;2023-04-30T02:37:53;717.15;;;300.80;;
57231;SDS011;43488;46.934;8.276;2023-04-30T02:40:20;713.13;;;297.10;;
57231;SDS011;43488;46.934;8.276;2023-04-30T02:42:48;720.55;;;307.40;;
57231;SDS011;43488;46.934;8.276;2023-04-30T02:45:16;716.38;;;298.05;;
57231;SDS011;43488;46.934;8.276;2023-04-30T02:47:44;714.40;;;301.88;;
57231;SDS011;43488;46.934;8.276;2023-04-30T02:50:11;705.55;;;289.38;;
57231;SDS011;43488;46.934;8.276;2023-04-30T02:52:38;714.22;;;305.75;;
57231;SDS011;43488;46.934;8.276;2023-04-30T02:55:06;714.10;;;297.05;;
57231;SDS011;43488;46.934;8.276;2023-04-30T02:57:34;704.20;;;288.50;;
57231;SDS011;43488;46.934;8.276;2023-04-30T03:00:02;715.70;;;301.90;;
57231;SDS011;43488;46.934;8.276;2023-04-30T03:02:31;709.33;;;294.05;;
57231;SDS011;43488;46.934;8.276;2023-04-30T03:04:58;720.55;;;304.35;;
57231;SDS011;43488;46.934;8.276;2023-04-30T03:07:25;709.78;;;296.15;;
57231;SDS011;43488;46.934;8.276;2023-04-30T03:09:55;718.38;;;302.35;;
57231;SDS011;43488;46.934;8.276;2023-04-30T03:12:23;718.67;;;307.00;;
57231;SDS011;43488;46.934;8.276;2023-04-30T03:14:51;713.75;;;297.15;;
57231;SDS011;43488;46.934;8.276;2023-04-30T03:17:18;714.08;;;303.25;;
57231;SDS011;43488;46.934;8.276;2023-04-30T03:19:47;720.17;;;306.02;;
57231;SDS011;43488;46.934;8.276;2023-04-30T03:22:14;711.65;;;298.58;;
57231;SDS011;43488;46.934;8.276;2023-04-30T03:24:42;714.33;;;299.67;;
57231;SDS011;43488;46.934;8.276;2023-04-30T03:27:10;709.80;;;298.20;;
57231;SDS011;43488;46.934;8.276;2023-04-30T03:29:37;719.13;;;305.23;;
57231;SDS011;43488;46.934;8.276;2023-04-30T03:32:04;712.72;;;299.80;;
57231;SDS011;43488;46.934;8.276;2023-04-30T03:34:32;715.63;;;300.80;;
57231;SDS011;43488;46.934;8.276;2023-04-30T03:36:59;708.53;;;296.95;;
57231;SDS011;43488;46.934;8.276;2023-04-30T03:39:27;706.95;;;292.27;;
57231;SDS011;43488;46.934;8.276;2023-04-30T03:41:54;717.33;;;308.67;;
57231;SDS011;43488;46.934;8.276;2023-04-30T03:44:21;711.33;;;294.45;;
57231;SDS011;43488;46.934;8.276;2023-04-30T03:46:48;709.17;;;296.33;;
57231;SDS011;43488;46.934;8.276;2023-04-30T03:49:16;705.70;;;292.75;;
57231;SDS011;43488;46.934;8.276;2023-04-30T03:51:43;702.08;;;289.83;;
57231;SDS011;43488;46.934;8.276;2023-04-30T03:54:10;699.92;;;287.17;;
57231;SDS011;43488;46.934;8.276;2023-04-30T03:56:38;705.17;;;296.35;;
57231;SDS011;43488;46.934;8.276;2023-04-30T03:59:07;711.05;;;297.15;;
57231;SDS011;43488;46.934;8.276;2023-04-30T04:01:34;699.88;;;284.52;;
57231;SDS011;43488;46.934;8.276;2023-04-30T04:04:02;706.08;;;292.17;;
57231;SDS011;43488;46.934;8.276;2023-04-30T04:06:29;707.70;;;294.67;;
57231;SDS011;43488;46.934;8.276;2023-04-30T04:08:57;714.05;;;300.10;;
57231;SDS011;43488;46.934;8.276;2023-04-30T04:11:24;707.83;;;295.85;;
57231;SDS011;43488;46.934;8.276;2023-04-30T04:13:51;709.53;;;295.08;;
57231;SDS011;43488;46.934;8.276;2023-04-30T04:16:19;709.95;;;295.13;;
57231;SDS011;43488;46.934;8.276;2023-04-30T04:18:46;701.75;;;287.90;;
57231;SDS011;43488;46.934;8.276;2023-04-30T04:21:13;709.20;;;294.10;;
57231;SDS011;43488;46.934;8.276;2023-04-30T04:23:41;714.35;;;298.42;;
57231;SDS011;43488;46.934;8.276;2023-04-30T04:26:08;715.70;;;305.05;;
57231;SDS011;43488;46.934;8.276;2023-04-30T04:28:35;703.92;;;290.40;;
57231;SDS011;43488;46.934;8.276;2023-04-30T04:31:05;703.80;;;291.85;;
57231;SDS011;43488;46.934;8.276;2023-04-30T04:33:33;718.65;;;307.25;;
57231;SDS011;43488;46.934;8.276;2023-04-30T04:36:01;705.47;;;290.00;;
57231;SDS011;43488;46.934;8.276;2023-04-30T04:38:28;706.47;;;288.30;;
57231;SDS011;43488;46.934;8.276;2023-04-30T04:40:55;713.60;;;300.73;;
57231;SDS011;43488;46.934;8.276;2023-04-30T04:43:23;715.20;;;298.38;;
57231;SDS011;43488;46.934;8.276;2023-04-30T04:45:50;716.22;;;303.52;;
57231;SDS011;43488;46.934;8.276;2023-04-30T04:48:18;718.80;;;306.15;;
57231;SDS011;43488;46.934;8.276;2023-04-30T04:50:45;716.35;;;307.00;;
57231;SDS011;43488;46.934;8.276;2023-04-30T04:53:13;712.90;;;294.30;;
57231;SDS011;43488;46.934;8.276;2023-04-30T04:55:41;715.60;;;299.83;;
57231;SDS011;43488;46.934;8.276;2023-04-30T04:58:09;721.13;;;308.15;;
57231;SDS011;43488;46.934;8.276;2023-04-30T05:00:37;722.10;;;311.65;;
57231;SDS011;43488;46.934;8.276;2023-04-30T05:03:04;722.08;;;301.98;;
57231;SDS011;43488;46.934;8.276;2023-04-30T05:05:32;702.63;;;285.23;;
57231;SDS011;43488;46.934;8.276;2023-04-30T05:07:59;716.08;;;296.13;;
57231;SDS011;43488;46.934;8.276;2023-04-30T05:10:27;715.47;;;295.48;;
57231;SDS011;43488;46.934;8.276;2023-04-30T05:12:54;723.42;;;296.42;;
57231;SDS011;43488;46.934;8.276;2023-04-30T05:15:21;723.45;;;303.63;;
57231;SDS011;43488;46.934;8.276;2023-04-30T05:17:49;705.13;;;280.30;;
57231;SDS011;43488;46.934;8.276;2023-04-30T05:20:17;674.25;;;284.77;;
57231;SDS011;43488;46.934;8.276;2023-04-30T05:22:44;696.55;;;299.38;;
57231;SDS011;43488;46.934;8.276;2023-04-30T05:25:11;684.38;;;293.27;;
57231;SDS011;43488;46.934;8.276;2023-04-30T05:27:39;676.92;;;271.80;;
57231;SDS011;43488;46.934;8.276;2023-04-30T05:30:06;695.92;;;292.02;;
57231;SDS011;43488;46.934;8.276;2023-04-30T05:32:35;698.50;;;296.88;;
57231;SDS011;43488;46.934;8.276;2023-04-30T05:35:02;698.67;;;292.75;;
57231;SDS011;43488;46.934;8.276;2023-04-30T05:37:29;697.20;;;295.95;;
57231;SDS011;43488;46.934;8.276;2023-04-30T05:39:58;698.03;;;307.75;;
57231;SDS011;43488;46.934;8.276;2023-04-30T05:42:25;690.00;;;294.05;;
57231;SDS011;43488;46.934;8.276;2023-04-30T05:44:53;687.08;;;290.10;;
57231;SDS011;43488;46.934;8.276;2023-04-30T05:47:21;695.28;;;302.15;;
57231;SDS011;43488;46.934;8.276;2023-04-30T05:49:48;687.97;;;298.55;;
57231;SDS011;43488;46.934;8.276;2023-04-30T05:52:17;696.15;;;305.00;;
57231;SDS011;43488;46.934;8.276;2023-04-30T05:54:45;691.70;;;304.60;;
57231;SDS011;43488;46.934;8.276;2023-04-30T05:57:16;684.60;;;295.48;;
57231;SDS011;43488;46.934;8.276;2023-04-30T05:59:43;688.78;;;303.05;;
57231;SDS011;43488;46.934;8.276;2023-04-30T06:02:10;685.45;;;296.80;;
57231;SDS011;43488;46.934;8.276;2023-04-30T06:04:37;684.63;;;301.70;;
57231;SDS011;43488;46.934;8.276;2023-04-30T06:07:04;680.85;;;295.90;;
57231;SDS011;43488;46.934;8.276;2023-04-30T06:09:32;680.90;;;304.23;;
57231;SDS011;43488;46.934;8.276;2023-04-30T06:11:59;680.00;;;291.40;;
57231;SDS011;43488;46.934;8.276;2023-04-30T06:14:27;687.08;;;294.55;;
57231;SDS011;43488;46.934;8.276;2023-04-30T06:16:55;696.20;;;302.15;;
57231;SDS011;43488;46.934;8.276;2023-04-30T06:19:22;689.88;;;301.10;;
57231;SDS011;43488;46.934;8.276;2023-04-30T06:21:50;695.25;;;299.08;;
57231;SDS011;43488;46.934;8.276;2023-04-30T06:24:17;684.00;;;288.52;;
57231;SDS011;43488;46.934;8.276;2023-04-30T06:26:44;694.92;;;299.98;;
57231;SDS011;43488;46.934;8.276;2023-04-30T06:29:11;688.90;;;296.00;;
57231;SDS011;43488;46.934;8.276;2023-04-30T06:31:40;696.05;;;299.30;;
57231;SDS011;43488;46.934;8.276;2023-04-30T06:34:07;692.90;;;299.33;;
57231;SDS011;43488;46.934;8.276;2023-04-30T06:36:34;698.60;;;303.27;;
57231;SDS011;43488;46.934;8.276;2023-04-30T06:39:01;700.33;;;315.73;;
57231;SDS011;43488;46.934;8.276;2023-04-30T06:41:30;687.90;;;288.15;;
57231;SDS011;43488;46.934;8.276;2023-04-30T06:43:59;689.97;;;295.27;;
57231;SDS011;43488;46.934;8.276;2023-04-30T06:46:26;682.85;;;280.73;;
57231;SDS011;43488;46.934;8.276;2023-04-30T06:48:54;690.72;;;298.50;;
57231;SDS011;43488;46.934;8.276;2023-04-30T06:51:22;690.97;;;292.92;;
57231;SDS011;43488;46.934;8.276;2023-04-30T06:53:49;695.78;;;301.60;;
57231;SDS011;43488;46.934;8.276;2023-04-30T06:56:16;686.03;;;286.15;;
57231;SDS011;43488;46.934;8.276;2023-04-30T06:58:44;689.67;;;298.45;;
57231;SDS011;43488;46.934;8.276;2023-04-30T07:01:11;694.33;;;291.48;;
57231;SDS011;43488;46.934;8.276;2023-04-30T07:03:39;695.58;;;301.58;;
57231;SDS011;43488;46.934;8.276;2023-04-30T07:06:06;685.30;;;284.02;;
57231;SDS011;43488;46.934;8.276;2023-04-30T07:08:33;697.50;;;306.70;;
57231;SDS011;43488;46.934;8.276;2023-04-30T07:11:00;687.97;;;283.35;;
57231;SDS011;43488;46.934;8.276;2023-04-30T07:13:28;688.83;;;296.48;;
57231;SDS011;43488;46.934;8.276;2023-04-30T07:15:55;683.67;;;283.05;;
57231;SDS011;43488;46.934;8.276;2023-04-30T07:18:23;693.17;;;300.17;;
57231;SDS011;43488;46.934;8.276;2023-04-30T07:20:50;695.92;;;292.25;;
57231;SDS011;43488;46.934;8.276;2023-04-30T07:23:18;697.38;;;302.40;;
57231;SDS011;43488;46.934;8.276;2023-04-30T07:25:47;702.40;;;305.58;;
57231;SDS011;43488;46.934;8.276;2023-04-30T07:28:15;696.75;;;305.35;;
57231;SDS011;43488;46.934;8.276;2023-04-30T07:30:44;696.80;;;296.08;;
57231;SDS011;43488;46.934;8.276;2023-04-30T07:33:12;699.50;;;303.77;;
57231;SDS011;43488;46.934;8.276;2023-04-30T07:35:39;694.03;;;293.73;;
57231;SDS011;43488;46.934;8.276;2023-04-30T07:38:07;703.67;;;312.33;;
57231;SDS011;43488;46.934;8.276;2023-04-30T07:40:34;692.15;;;282.85;;
57231;SDS011;43488;46.934;8.276;2023-04-30T07:43:02;705.30;;;307.42;;
57231;SDS011;43488;46.934;8.276;2023-04-30T07:45:30;679.10;;;274.52;;
57231;SDS011;43488;46.934;8.276;2023-04-30T07:47:59;707.15;;;315.25;;
57231;SDS011;43488;46.934;8.276;2023-04-30T07:50:28;690.28;;;277.95;;
57231;SDS011;43488;46.934;8.276;2023-04-30T07:52:59;701.63;;;299.35;;
57231;SDS011;43488;46.934;8.276;2023-04-30T07:55:27;684.85;;;277.85;;
57231;SDS011;43488;46.934;8.276;2023-04-30T07:57:55;706.08;;;316.60;;
57231;SDS011;43488;46.934;8.276;2023-04-30T08:00:22;683.50;;;272.00;;
57231;SDS011;43488;46.934;8.276;2023-04-30T08:02:52;705.83;;;315.88;;
57231;SDS011;43488;46.934;8.276;2023-04-30T08:05:19;680.33;;;275.63;;
57231;SDS011;43488;46.934;8.276;2023-04-30T08:07:47;696.20;;;303.60;;
57231;SDS011;43488;46.934;8.276;2023-04-30T08:10:14;677.28;;;270.35;;
57231;SDS011;43488;46.934;8.276;2023-04-30T08:12:42;694.80;;;297.23;;
57231;SDS011;43488;46.934;8.276;2023-04-30T08:15:11;690.22;;;288.52;;
57231;SDS011;43488;46.934;8.276;2023-04-30T08:17:39;696.38;;;301.50;;
57231;SDS011;43488;46.934;8.276;2023-04-30T08:20:07;680.20;;;272.15;;
57231;SDS011;43488;46.934;8.276;2023-04-30T08:22:35;700.15;;;305.45;;
57231;SDS011;43488;46.934;8.276;2023-04-30T08:25:03;698.50;;;297.52;;
57231;SDS011;43488;46.934;8.276;2023-04-30T08:27:30;699.72;;;306.90;;
57231;SDS011;43488;46.934;8.276;2023-04-30T08:29:58;679.88;;;271.00;;
57231;SDS011;43488;46.934;8.276;2023-04-30T08:32:26;693.08;;;296.92;;
57231;SDS011;43488;46.934;8.276;2023-04-30T08:34:53;689.42;;;285.50;;
57231;SDS011;43488;46.934;8.276;2023-04-30T08:37:21;699.70;;;305.85;;
57231;SDS011;43488;46.934;8.276;2023-04-30T08:39:48;685.38;;;277.95;;
57231;SDS011;43488;46.934;8.276;2023-04-30T08:42:15;698.40;;;301.70;;
57231;SDS011;43488;46.934;8.276;2023-04-30T08:44:44;696.78;;;294.92;;
57231;SDS011;43488;46.934;8.276;2023-04-30T08:47:12;698.72;;;304.50;;
57231;SDS011;43488;46.934;8.276;2023-04-30T08:49:41;695.90;;;290.73;;
57231;SDS011;43488;46.934;8.276;2023-04-30T08:52:10;698.95;;;303.60;;
57231;SDS011;43488;46.934;8.276;2023-04-30T08:54:37;691.30;;;292.40;;
57231;SDS011;43488;46.934;8.276;2023-04-30T08:57:04;698.80;;;307.63;;
57231;SDS011;43488;46.934;8.276;2023-04-30T08:59:32;695.42;;;293.52;;
57231;SDS011;43488;46.934;8.276;2023-04-30T09:02:00;694.80;;;299.45;;
57231;SDS011;43488;46.934;8.276;2023-04-30T09:04:27;698.97;;;301.08;;
57231;SDS011;43488;46.934;8.276;2023-04-30T09:06:55;699.38;;;307.17;;
57231;SDS011;43488;46.934;8.276;2023-04-30T09:09:28;690.03;;;281.38;;
57231;SDS011;43488;46.934;8.276;2023-04-30T09:14:39;699.92;;;296.25;;
57231;SDS011;43488;46.934;8.276;2023-04-30T09:17:07;696.63;;;304.25;;
57231;SDS011;43488;46.934;8.276;2023-04-30T09:19:47;684.70;;;277.17;;
57231;SDS011;43488;46.934;8.276;2023-04-30T09:22:19;698.78;;;304.48;;
57231;SDS011;43488;46.934;8.276;2023-04-30T09:24:50;691.63;;;291.88;;
57231;SDS011;43488;46.934;8.276;2023-04-30T09:27:18;695.08;;;303.73;;
57231;SDS011;43488;46.934;8.276;2023-04-30T09:29:48;694.63;;;299.35;;
57231;SDS011;43488;46.934;8.276;2023-04-30T09:32:15;687.22;;;292.40;;
57231;SDS011;43488;46.934;8.276;2023-04-30T09:34:42;693.30;;;302.60;;
57231;SDS011;43488;46.934;8.276;2023-04-30T09:37:10;692.70;;;307.77;;
57231;SDS011;43488;46.934;8.276;2023-04-30T09:39:47;684.15;;;297.17;;
57231;SDS011;43488;46.934;8.276;2023-04-30T09:42:17;675.17;;;289.77;;
57231;SDS011;43488;46.934;8.276;2023-04-30T09:44:45;692.75;;;306.48;;
57231;SDS011;43488;46.934;8.276;2023-04-30T09:47:17;682.97;;;295.13;;
57231;SDS011;43488;46.934;8.276;2023-04-30T09:49:49;681.33;;;292.25;;
57231;SDS011;43488;46.934;8.276;2023-04-30T09:52:17;681.15;;;301.80;;
57231;SDS011;43488;46.934;8.276;2023-04-30T09:54:45;681.05;;;292.00;;
57231;SDS011;43488;46.934;8.276;2023-04-30T09:57:14;680.90;;;296.50;;
57231;SDS011;43488;46.934;8.276;2023-04-30T09:59:51;663.08;;;281.40;;
57231;SDS011;43488;46.934;8.276;2023-04-30T10:02:18;673.78;;;294.92;;
57231;SDS011;43488;46.934;8.276;2023-04-30T10:04:53;653.40;;;268.77;;
57231;SDS011;43488;46.934;8.276;2023-04-30T10:07:23;667.33;;;289.50;;
57231;SDS011;43488;46.934;8.276;2023-04-30T10:09:58;665.35;;;282.42;;
57231;SDS011;43488;46.934;8.276;2023-04-30T10:15:19;686.47;;;293.13;;
57231;SDS011;43488;46.934;8.276;2023-04-30T10:17:59;694.20;;;307.05;;
57231;SDS011;43488;46.934;8.276;2023-04-30T10:20:35;686.55;;;291.42;;
57231;SDS011;43488;46.934;8.276;2023-04-30T10:23:05;695.28;;;306.40;;
57231;SDS011;43488;46.934;8.276;2023-04-30T10:25:37;690.15;;;301.85;;
57231;SDS011;43488;46.934;8.276;2023-04-30T10:28:07;683.03;;;294.05;;
57231;SDS011;43488;46.934;8.276;2023-04-30T10:30:36;686.97;;;295.90;;
57231;SDS011;43488;46.934;8.276;2023-04-30T10:35:44;696.65;;;304.52;;
57231;SDS011;43488;46.934;8.276;2023-04-30T10:38:21;687.17;;;297.27;;
57231;SDS011;43488;46.934;8.276;2023-04-30T10:40:55;689.67;;;293.55;;
57231;SDS011;43488;46.934;8.276;2023-04-30T10:43:25;684.95;;;290.25;;
57231;SDS011;43488;46.934;8.276;2023-04-30T10:45:55;697.13;;;308.63;;
57231;SDS011;43488;46.934;8.276;2023-04-30T10:48:24;683.30;;;294.25;;
57231;SDS011;43488;46.934;8.276;2023-04-30T10:50:54;684.67;;;294.60;;
57231;SDS011;43488;46.934;8.276;2023-04-30T10:53:25;686.53;;;298.73;;
57231;SDS011;43488;46.934;8.276;2023-04-30T10:55:57;679.60;;;293.27;;
57231;SDS011;43488;46.934;8.276;2023-04-30T10:58:32;682.03;;;302.60;;
57231;SDS011;43488;46.934;8.276;2023-04-30T11:01:08;685.80;;;297.75;;
57231;SDS011;43488;46.934;8.276;2023-04-30T11:03:42;678.88;;;290.02;;
57231;SDS011;43488;46.934;8.276;2023-04-30T11:12:13;677.10;;;286.27;;
57231;SDS011;43488;46.934;8.276;2023-04-30T11:15:05;675.13;;;291.17;;
57231;SDS011;43488;46.934;8.276;2023-04-30T11:17:38;668.90;;;285.52;;
57231;SDS011;43488;46.934;8.276;2023-04-30T11:20:06;681.40;;;294.02;;
57231;SDS011;43488;46.934;8.276;2023-04-30T11:22:37;688.35;;;295.38;;
57231;SDS011;43488;46.934;8.276;2023-04-30T11:25:05;689.17;;;296.88;;
57231;SDS011;43488;46.934;8.276;2023-04-30T11:27:36;691.23;;;302.77;;
57231;SDS011;43488;46.934;8.276;2023-04-30T11:30:11;696.00;;;309.52;;
57231;SDS011;43488;46.934;8.276;2023-04-30T11:32:43;696.17;;;305.10;;
57231;SDS011;43488;46.934;8.276;2023-04-30T11:35:14;690.33;;;296.65;;
57231;SDS011;43488;46.934;8.276;2023-04-30T11:37:44;690.78;;;297.40;;
57231;SDS011;43488;46.934;8.276;2023-04-30T11:40:13;682.90;;;294.83;;
57231;SDS011;43488;46.934;8.276;2023-04-30T11:42:41;693.38;;;299.30;;
57231;SDS011;43488;46.934;8.276;2023-04-30T11:45:11;692.55;;;302.30;;
57231;SDS011;43488;46.934;8.276;2023-04-30T11:47:50;683.33;;;290.77;;
57231;SDS011;43488;46.934;8.276;2023-04-30T11:50:21;689.25;;;300.67;;
57231;SDS011;43488;46.934;8.276;2023-04-30T11:52:57;683.88;;;289.23;;
57231;SDS011;43488;46.934;8.276;2023-04-30T11:55:28;683.47;;;294.13;;
57231;SDS011;43488;46.934;8.276;2023-04-30T11:57:57;683.90;;;291.25;;
57231;SDS011;43488;46.934;8.276;2023-04-30T12:00:26;683.30;;;292.98;;
57231;SDS011;43488;46.934;8.276;2023-04-30T12:02:56;694.42;;;304.58;;
57231;SDS011;43488;46.934;8.276;2023-04-30T12:05:26;694.15;;;305.17;;
57231;SDS011;43488;46.934;8.276;2023-04-30T12:08:01;688.83;;;293.08;;
57231;SDS011;43488;46.934;8.276;2023-04-30T12:10:31;695.95;;;306.00;;
57231;SDS011;43488;46.934;8.276;2023-04-30T12:12:59;693.15;;;300.50;;
57231;SDS011;43488;46.934;8.276;2023-04-30T12:15:28;696.50;;;307.15;;
57231;SDS011;43488;46.934;8.276;2023-04-30T12:17:57;693.47;;;300.38;;
57231;SDS011;43488;46.934;8.276;2023-04-30T12:20:26;693.38;;;306.15;;
57231;SDS011;43488;46.934;8.276;2023-04-30T12:22:59;694.17;;;299.15;;
57231;SDS011;43488;46.934;8.276;2023-04-30T12:25:28;690.38;;;293.73;;
57231;SDS011;43488;46.934;8.276;2023-04-30T12:27:57;699.35;;;306.02;;
57231;SDS011;43488;46.934;8.276;2023-04-30T12:30:25;690.33;;;291.10;;
57231;SDS011;43488;46.934;8.276;2023-04-30T12:32:55;677.15;;;267.00;;
57231;SDS011;43488;46.934;8.276;2023-04-30T12:35:28;703.90;;;305.55;;
57231;SDS011;43488;46.934;8.276;2023-04-30T12:38:01;681.90;;;263.48;;
57231;SDS011;43488;46.934;8.276;2023-04-30T12:40:30;695.83;;;287.00;;
57231;SDS011;43488;46.934;8.276;2023-04-30T12:43:06;690.33;;;280.45;;
57231;SDS011;43488;46.934;8.276;2023-04-30T12:45:51;712.10;;;314.92;;
57231;SDS011;43488;46.934;8.276;2023-04-30T12:48:21;677.80;;;257.20;;
57231;SDS011;43488;46.934;8.276;2023-04-30T12:50:54;693.22;;;282.90;;
57231;SDS011;43488;46.934;8.276;2023-04-30T12:53:31;696.60;;;282.77;;
57231;SDS011;43488;46.934;8.276;2023-04-30T12:56:08;708.95;;;314.70;;
57231;SDS011;43488;46.934;8.276;2023-04-30T12:58:44;679.70;;;273.25;;
57231;SDS011;43488;46.934;8.276;2023-04-30T13:01:17;702.95;;;306.33;;
57231;SDS011;43488;46.934;8.276;2023-04-30T13:03:51;698.88;;;292.65;;
57231;SDS011;43488;46.934;8.276;2023-04-30T13:06:20;699.03;;;299.48;;
57231;SDS011;43488;46.934;8.276;2023-04-30T13:08:49;701.83;;;304.53;;
57231;SDS011;43488;46.934;8.276;2023-04-30T13:11:17;696.72;;;305.00;;
57231;SDS011;43488;46.934;8.276;2023-04-30T13:13:45;695.33;;;292.50;;
57231;SDS011;43488;46.934;8.276;2023-04-30T13:16:15;694.10;;;295.05;;
57231;SDS011;43488;46.934;8.276;2023-04-30T13:18:43;703.95;;;311.65;;
57231;SDS011;43488;46.934;8.276;2023-04-30T13:21:10;685.58;;;285.42;;
57231;SDS011;43488;46.934;8.276;2023-04-30T13:23:38;703.67;;;301.15;;
57231;SDS011;43488;46.934;8.276;2023-04-30T13:26:06;699.40;;;287.70;;
57231;SDS011;43488;46.934;8.276;2023-04-30T13:28:33;689.50;;;279.38;;
57231;SDS011;43488;46.934;8.276;2023-04-30T13:31:00;709.15;;;317.42;;
57231;SDS011;43488;46.934;8.276;2023-04-30T13:33:28;682.67;;;271.23;;
57231;SDS011;43488;46.934;8.276;2023-04-30T13:35:55;698.90;;;303.38;;
57231;SDS011;43488;46.934;8.276;2023-04-30T13:38:22;691.83;;;290.13;;
57231;SDS011;43488;46.934;8.276;2023-04-30T13:40:49;699.15;;;306.33;;
57231;SDS011;43488;46.934;8.276;2023-04-30T13:43:17;695.95;;;297.67;;
57231;SDS011;43488;46.934;8.276;2023-04-30T13:45:45;692.80;;;297.52;;
57231;SDS011;43488;46.934;8.276;2023-04-30T13:48:12;696.35;;;302.17;;
57231;SDS011;43488;46.934;8.276;2023-04-30T13:50:39;697.20;;;306.35;;
57231;SDS011;43488;46.934;8.276;2023-04-30T13:53:07;691.50;;;288.45;;
57231;SDS011;43488;46.934;8.276;2023-04-30T13:55:34;688.70;;;289.75;;
57231;SDS011;43488;46.934;8.276;2023-04-30T13:58:01;691.28;;;294.60;;
57231;SDS011;43488;46.934;8.276;2023-04-30T14:00:29;705.65;;;313.23;;
57231;SDS011;43488;46.934;8.276;2023-04-30T14:02:56;700.53;;;302.88;;
57231;SDS011;43488;46.934;8.276;2023-04-30T14:05:23;683.15;;;287.08;;
57231;SDS011;43488;46.934;8.276;2023-04-30T14:07:51;692.33;;;296.05;;
57231;SDS011;43488;46.934;8.276;2023-04-30T14:10:18;694.20;;;299.65;;
57231;SDS011;43488;46.934;8.276;2023-04-30T14:12:45;711.17;;;312.42;;
57231;SDS011;43488;46.934;8.276;2023-04-30T14:15:14;706.45;;;299.48;;
57231;SDS011;43488;46.934;8.276;2023-04-30T14:17:43;714.03;;;307.13;;
57231;SDS011;43488;46.934;8.276;2023-04-30T14:20:11;697.03;;;286.08;;
57231;SDS011;43488;46.934;8.276;2023-04-30T14:22:39;711.60;;;305.27;;
57231;SDS011;43488;46.934;8.276;2023-04-30T14:25:06;693.15;;;276.33;;
57231;SDS011;43488;46.934;8.276;2023-04-30T14:27:35;704.28;;;298.38;;
57231;SDS011;43488;46.934;8.276;2023-04-30T14:30:02;695.83;;;285.35;;